createdAt,value
2019-01-25T00:01:32.738Z,-0.77
2019-01-25T00:04:03.368Z,-0.74
2019-01-25T00:06:33.785Z,-0.76
2019-01-25T00:09:06.392Z,-0.74
2019-01-25T00:11:36.950Z,-0.72
2019-01-25T00:14:07.518Z,-0.74
2019-01-25T00:16:38.064Z,-0.76
2019-01-25T00:19:08.397Z,-0.74
2019-01-25T00:21:39.134Z,-0.75
2019-01-25T00:24:12.097Z,-0.74
2019-01-25T00:26:42.538Z,-0.77
2019-01-25T00:29:16.983Z,-0.83
2019-01-25T00:31:47.630Z,-0.82
2019-01-25T00:34:18.060Z,-0.77
2019-01-25T00:36:52.701Z,-0.75
2019-01-25T00:39:23.470Z,-0.76
2019-01-25T00:41:54.023Z,-0.77
2019-01-25T00:44:24.414Z,-0.76
2019-01-25T00:46:54.850Z,-0.75
2019-01-25T00:49:26.191Z,-0.77
2019-01-25T00:51:59.345Z,-0.76
2019-01-25T00:54:29.749Z,-0.74
2019-01-25T00:57:00.130Z,-0.73
2019-01-25T00:59:30.668Z,-0.70
2019-01-25T01:02:01.100Z,-0.69
2019-01-25T01:04:31.927Z,-0.63
2019-01-25T01:07:06.694Z,-0.64
2019-01-25T01:09:41.166Z,-0.67
2019-01-25T01:12:13.621Z,-0.70
2019-01-25T01:14:44.327Z,-0.69
2019-01-25T01:17:14.842Z,-0.68
2019-01-25T01:19:45.491Z,-0.69
2019-01-25T01:22:16.285Z,-0.67
2019-01-25T01:24:47.664Z,-0.65
2019-01-25T01:27:18.112Z,-0.63
2019-01-25T01:29:48.852Z,-0.65
2019-01-25T01:32:19.476Z,-0.64
2019-01-25T01:34:58.427Z,-0.68
2019-01-25T01:37:28.849Z,-0.69
2019-01-25T01:39:59.287Z,-0.63
2019-01-25T01:42:29.746Z,-0.62
2019-01-25T01:45:00.267Z,-0.60
2019-01-25T01:47:30.730Z,-0.50
2019-01-25T01:50:01.115Z,-0.49
2019-01-25T01:52:31.556Z,-0.40
2019-01-25T01:55:01.898Z,-0.47
2019-01-25T01:57:32.315Z,-0.49
2019-01-25T02:00:02.991Z,-0.63
2019-01-25T02:02:33.457Z,-0.64
2019-01-25T02:05:03.856Z,-0.65
2019-01-25T02:07:34.269Z,-0.68
2019-01-25T02:10:05.766Z,-0.69
2019-01-25T02:12:36.311Z,-0.69
2019-01-25T02:15:08.078Z,-0.62
2019-01-25T02:17:38.715Z,-0.44
2019-01-25T02:20:11.323Z,-0.49
2019-01-25T02:22:42.837Z,-0.48
2019-01-25T02:25:13.284Z,-0.49
2019-01-25T02:27:46.790Z,-0.51
2019-01-25T02:30:21.456Z,-0.50
2019-01-25T02:32:52.026Z,-0.54
2019-01-25T02:35:22.546Z,-0.58
2019-01-25T02:37:52.981Z,-0.54
2019-01-25T02:40:25.173Z,-0.52
2019-01-25T02:42:55.934Z,-0.51
2019-01-25T02:45:26.593Z,-0.50
2019-01-25T02:47:57.109Z,-0.58
2019-01-25T02:50:27.466Z,-0.60
2019-01-25T02:53:03.675Z,-0.60
2019-01-25T02:55:30.631Z,-0.62
2019-01-25T02:58:01.128Z,-0.58
2019-01-25T03:00:31.521Z,-0.58
2019-01-25T03:03:01.946Z,-0.62
2019-01-25T03:05:34.627Z,-0.60
2019-01-25T03:08:05.056Z,-0.55
2019-01-25T03:10:35.460Z,-0.63
2019-01-25T03:13:06.049Z,-0.66
2019-01-25T03:15:36.419Z,-0.65
2019-01-25T03:18:09.044Z,-0.64
2019-01-25T03:20:39.773Z,-0.65
2019-01-25T03:23:10.134Z,-0.65
2019-01-25T03:25:40.809Z,-0.64
2019-01-25T03:28:11.191Z,-0.60
2019-01-25T03:30:41.608Z,-0.60
2019-01-25T03:33:12.000Z,-0.66
2019-01-25T03:35:44.516Z,-0.71
2019-01-25T03:38:28.279Z,-0.71
2019-01-25T03:40:59.238Z,-0.70
2019-01-25T03:43:31.276Z,-0.75
2019-01-25T03:46:02.148Z,-0.77
2019-01-25T03:48:32.523Z,-0.73
2019-01-25T03:51:02.966Z,-0.71
2019-01-25T03:53:33.589Z,-0.72
2019-01-25T03:56:04.322Z,-0.72
2019-01-25T03:58:34.614Z,-0.69
2019-01-25T04:01:05.028Z,-0.70
2019-01-25T04:03:35.540Z,-0.66
2019-01-25T04:06:23.485Z,-0.65
2019-01-25T04:08:56.267Z,-0.60
2019-01-25T04:11:26.774Z,-0.56
2019-01-25T04:13:57.166Z,-0.53
2019-01-25T04:16:27.619Z,-0.48
2019-01-25T04:18:58.215Z,-0.45
2019-01-25T04:21:28.665Z,-0.42
2019-01-25T04:23:59.182Z,-0.47
2019-01-25T04:26:29.575Z,-0.45
2019-01-25T04:29:00.402Z,-0.32
2019-01-25T04:31:30.800Z,-0.29
2019-01-25T04:34:02.324Z,-0.37
2019-01-25T04:36:32.768Z,-0.40
2019-01-25T04:39:04.113Z,-0.39
2019-01-25T04:41:34.674Z,-0.34
2019-01-25T04:44:05.683Z,-0.35
2019-01-25T04:46:38.117Z,-0.36
2019-01-25T04:49:10.788Z,-0.36
2019-01-25T04:51:41.216Z,-0.31
2019-01-25T04:54:11.697Z,-0.25
2019-01-25T04:56:42.549Z,-0.05
2019-01-25T04:59:13.223Z,0.07
2019-01-25T05:01:46.510Z,0.00
2019-01-25T05:04:17.044Z,-0.06
2019-01-25T05:06:47.486Z,-0.12
2019-01-25T05:09:17.819Z,-0.15
2019-01-25T05:11:49.008Z,-0.19
2019-01-25T05:14:19.560Z,-0.20
2019-01-25T05:16:50.751Z,-0.25
2019-01-25T05:19:21.183Z,-0.28
2019-01-25T05:21:51.810Z,-0.27
2019-01-25T05:24:22.521Z,-0.24
2019-01-25T05:26:58.017Z,-0.23
2019-01-25T05:29:50.068Z,-0.19
2019-01-25T05:32:21.142Z,-0.24
2019-01-25T05:34:51.552Z,-0.18
2019-01-25T05:37:23.408Z,-0.15
2019-01-25T05:39:53.850Z,-0.11
2019-01-25T05:42:24.200Z,-0.01
2019-01-25T05:44:57.421Z,-0.05
2019-01-25T05:47:28.294Z,-0.05
2019-01-25T05:49:58.756Z,0.05
2019-01-25T05:52:29.370Z,0.04
2019-01-25T05:54:59.753Z,0.05
2019-01-25T05:57:30.114Z,0.04
2019-01-25T06:00:03.548Z,-0.02
2019-01-25T06:02:34.237Z,-0.05
2019-01-25T06:05:05.046Z,-0.08
2019-01-25T06:07:35.443Z,-0.13
2019-01-25T06:10:06.699Z,-0.13
2019-01-25T06:12:37.083Z,-0.13
2019-01-25T06:15:07.746Z,-0.08
2019-01-25T06:17:38.201Z,-0.05
2019-01-25T06:20:08.945Z,-0.04
2019-01-25T06:22:40.953Z,-0.01
2019-01-25T06:25:11.987Z,-0.02
2019-01-25T06:27:44.794Z,-0.04
2019-01-25T06:30:16.849Z,-0.13
2019-01-25T06:32:47.399Z,-0.17
2019-01-25T06:35:18.602Z,-0.16
2019-01-25T06:37:51.901Z,-0.08
2019-01-25T06:40:22.374Z,-0.10
2019-01-25T06:42:52.709Z,-0.04
2019-01-25T06:45:26.302Z,-0.04
2019-01-25T06:47:56.741Z,-0.02
2019-01-25T06:50:27.405Z,-0.02
2019-01-25T06:52:57.933Z,0.00
2019-01-25T06:55:28.323Z,0.04
2019-01-25T06:58:09.304Z,0.09
2019-01-25T07:00:44.119Z,0.03
2019-01-25T07:03:14.676Z,0.01
2019-01-25T07:05:48.131Z,0.04
2019-01-25T07:08:19.440Z,0.03
2019-01-25T07:10:51.042Z,0.09
2019-01-25T07:13:21.497Z,0.13
2019-01-25T07:15:55.128Z,0.08
2019-01-25T07:18:25.549Z,0.14
2019-01-25T07:20:57.343Z,0.03
2019-01-25T07:23:29.616Z,0.00
2019-01-25T07:26:00.007Z,-0.06
2019-01-25T07:28:30.769Z,-0.12
2019-01-25T07:31:01.320Z,-0.08
2019-01-25T07:33:32.087Z,-0.01
2019-01-25T07:36:02.396Z,-0.02
2019-01-25T07:38:32.921Z,-0.01
2019-01-25T07:41:06.279Z,0.00
2019-01-25T07:43:36.746Z,-0.02
2019-01-25T07:46:07.566Z,0.03
2019-01-25T07:48:37.948Z,0.08
2019-01-25T07:51:08.408Z,0.07
2019-01-25T07:53:38.867Z,0.08
2019-01-25T07:56:09.396Z,0.08
2019-01-25T07:58:39.913Z,0.05
2019-01-25T08:01:14.689Z,0.03
2019-01-25T08:03:45.168Z,0.07
2019-01-25T08:06:18.708Z,0.07
2019-01-25T08:08:49.275Z,0.07
2019-01-25T08:11:21.834Z,0.09
2019-01-25T08:13:52.207Z,0.13
2019-01-25T08:16:22.729Z,0.26
2019-01-25T08:18:53.198Z,0.40
2019-01-25T08:21:23.809Z,0.36
2019-01-25T08:23:54.167Z,0.27
2019-01-25T08:26:25.979Z,0.24
2019-01-25T08:28:56.470Z,0.37
2019-01-25T08:31:27.042Z,0.38
2019-01-25T08:33:57.389Z,0.40
2019-01-25T08:36:27.839Z,0.48
2019-01-25T08:38:58.160Z,0.44
2019-01-25T08:41:28.624Z,0.44
2019-01-25T08:44:01.827Z,0.43
2019-01-25T08:46:32.555Z,0.43
2019-01-25T08:49:03.116Z,0.47
2019-01-25T08:51:33.533Z,0.48
2019-01-25T08:54:04.117Z,0.51
2019-01-25T08:56:34.788Z,0.55
2019-01-25T08:59:05.479Z,0.53
2019-01-25T09:01:36.275Z,0.53
2019-01-25T09:04:06.714Z,0.52
2019-01-25T09:06:36.968Z,0.52
2019-01-25T09:09:10.405Z,0.57
2019-01-25T09:11:43.197Z,0.64
2019-01-25T09:14:13.545Z,0.69
2019-01-25T09:16:43.928Z,0.72
2019-01-25T09:19:14.269Z,0.78
2019-01-25T09:21:45.158Z,0.81
2019-01-25T09:24:16.684Z,0.92
2019-01-25T09:26:47.568Z,0.88
2019-01-25T09:29:18.193Z,0.86
2019-01-25T09:31:49.396Z,0.90
2019-01-25T09:34:20.465Z,0.95
2019-01-25T09:36:52.697Z,1.01
2019-01-25T09:39:23.457Z,1.00
2019-01-25T09:41:53.851Z,0.96
2019-01-25T09:44:25.156Z,0.96
2019-01-25T09:46:55.568Z,0.95
2019-01-25T09:49:28.982Z,0.98
2019-01-25T09:52:02.330Z,1.01
2019-01-25T09:54:32.737Z,1.06
2019-01-25T09:57:05.033Z,1.10
2019-01-25T09:59:35.514Z,1.23
2019-01-25T10:02:05.923Z,1.23
2019-01-25T10:04:36.420Z,1.24
2019-01-25T10:07:06.873Z,1.31
2019-01-25T10:09:37.528Z,1.37
2019-01-25T10:12:07.943Z,1.40
2019-01-25T10:14:38.418Z,1.45
2019-01-25T10:17:08.900Z,1.50
2019-01-25T10:19:39.235Z,1.57
2019-01-25T10:22:09.703Z,1.64
2019-01-25T10:24:40.093Z,1.69
2019-01-25T10:27:10.413Z,1.74
2019-01-25T10:29:40.805Z,1.76
2019-01-25T10:32:11.329Z,1.86
2019-01-25T10:34:41.775Z,1.88
2019-01-25T10:37:12.574Z,1.86
2019-01-25T10:39:43.475Z,1.85
2019-01-25T10:42:14.233Z,1.89
2019-01-25T10:44:44.637Z,1.89
2019-01-25T10:47:14.962Z,1.91
2019-01-25T10:49:45.349Z,1.83
2019-01-25T10:52:16.142Z,1.73
2019-01-25T10:54:46.576Z,1.79
2019-01-25T10:57:17.091Z,1.73
2019-01-25T10:59:47.802Z,1.76
2019-01-25T11:02:18.207Z,1.81
2019-01-25T11:04:50.193Z,1.83
2019-01-25T11:07:22.798Z,1.91
2019-01-25T11:09:53.198Z,1.97
2019-01-25T11:12:25.130Z,2.03
2019-01-25T11:14:55.650Z,2.09
2019-01-25T11:17:26.082Z,1.85
2019-01-25T11:19:59.255Z,1.75
2019-01-25T11:22:29.990Z,1.78
2019-01-25T11:25:00.627Z,1.80
2019-01-25T11:27:32.208Z,1.85
2019-01-25T11:30:02.644Z,1.84
2019-01-25T11:32:32.996Z,1.88
2019-01-25T11:35:04.841Z,1.94
2019-01-25T11:37:35.240Z,2.03
2019-01-25T11:40:10.208Z,2.05
2019-01-25T11:42:40.565Z,2.16
2019-01-25T11:45:11.465Z,2.23
2019-01-25T11:47:44.174Z,2.38
2019-01-25T11:50:15.675Z,2.45
2019-01-25T11:52:46.199Z,2.50
2019-01-25T11:55:16.981Z,2.44
2019-01-25T11:57:47.457Z,2.32
2019-01-25T12:00:20.631Z,2.29
2019-01-25T12:02:51.335Z,2.28
2019-01-25T12:05:22.872Z,2.38
2019-01-25T12:07:54.496Z,2.46
2019-01-25T12:10:29.496Z,2.53
2019-01-25T12:12:59.856Z,2.52
2019-01-25T12:15:30.305Z,2.57
2019-01-25T12:18:00.733Z,2.78
2019-01-25T12:20:31.777Z,2.93
2019-01-25T12:23:02.895Z,3.09
2019-01-25T12:25:33.240Z,3.25
2019-01-25T12:28:05.274Z,3.26
2019-01-25T12:30:38.372Z,3.21
2019-01-25T12:33:09.902Z,3.21
2019-01-25T12:35:42.338Z,3.18
2019-01-25T12:38:12.768Z,3.29
2019-01-25T12:40:43.219Z,3.42
2019-01-25T12:43:13.630Z,3.54
2019-01-25T12:45:44.021Z,3.67
2019-01-25T12:48:14.455Z,3.69
2019-01-25T12:50:49.182Z,3.76
2019-01-25T12:53:20.983Z,3.72
2019-01-25T12:55:51.472Z,3.74
2019-01-25T12:58:21.857Z,3.70
2019-01-25T13:00:54.191Z,3.68
2019-01-25T13:03:26.839Z,3.71
2019-01-25T13:05:57.801Z,3.72
2019-01-25T13:08:30.550Z,3.80
2019-01-25T13:11:03.634Z,3.81
2019-01-25T13:13:36.299Z,3.91
2019-01-25T13:16:06.677Z,3.98
2019-01-25T13:18:37.231Z,4.00
2019-01-25T13:21:07.690Z,4.13
2019-01-25T13:23:38.961Z,4.09
2019-01-25T13:26:09.481Z,4.13
2019-01-25T13:28:41.709Z,4.12
2019-01-25T13:31:11.981Z,4.14
2019-01-25T13:33:42.376Z,4.07
2019-01-25T13:36:14.224Z,4.07
2019-01-25T13:38:44.548Z,4.02
2019-01-25T13:41:14.895Z,4.06
2019-01-25T13:43:45.238Z,4.09
2019-01-25T13:46:15.646Z,4.10
2019-01-25T13:48:46.571Z,4.11
2019-01-25T13:51:17.049Z,4.14
2019-01-25T13:53:47.383Z,4.14
2019-01-25T13:56:17.833Z,4.15
2019-01-25T13:58:49.934Z,4.14
2019-01-25T14:01:20.650Z,4.06
2019-01-25T14:03:51.159Z,3.99
2019-01-25T14:06:21.623Z,4.00
2019-01-25T14:08:53.616Z,4.01
2019-01-25T14:11:24.028Z,4.05
2019-01-25T14:13:54.444Z,4.03
2019-01-25T14:16:24.784Z,4.07
2019-01-25T14:18:55.304Z,4.05
2019-01-25T14:21:25.587Z,4.02
2019-01-25T14:23:56.003Z,4.04
2019-01-25T14:26:26.388Z,4.08
2019-01-25T14:28:56.833Z,4.08
2019-01-25T14:31:27.200Z,4.11
2019-01-25T14:33:57.569Z,4.15
2019-01-25T14:36:28.228Z,4.09
2019-01-25T14:38:58.578Z,4.08
2019-01-25T14:41:28.962Z,4.08
2019-01-25T14:43:59.318Z,4.06
2019-01-25T14:46:29.775Z,4.07
2019-01-25T14:49:00.335Z,4.09
2019-01-25T14:51:31.154Z,4.05
2019-01-25T14:54:01.549Z,4.01
2019-01-25T14:56:34.499Z,4.02
2019-01-25T14:59:05.069Z,4.00
2019-01-25T15:01:35.480Z,3.98
2019-01-25T15:04:05.976Z,3.91
2019-01-25T15:06:36.347Z,3.91
2019-01-25T15:09:09.821Z,3.93
2019-01-25T15:11:40.232Z,3.95
2019-01-25T15:14:10.752Z,3.94
2019-01-25T15:16:41.226Z,3.95
2019-01-25T15:19:11.711Z,3.96
2019-01-25T15:21:42.348Z,3.96
2019-01-25T15:24:14.510Z,3.96
2019-01-25T15:26:44.924Z,3.94
2019-01-25T15:29:16.109Z,3.94
2019-01-25T15:31:46.503Z,3.90
2019-01-25T15:34:17.020Z,3.89
2019-01-25T15:36:48.867Z,3.86
2019-01-25T15:39:19.497Z,3.87
2019-01-25T15:41:49.811Z,3.91
2019-01-25T15:44:20.250Z,3.92
2019-01-25T15:46:54.322Z,3.95
2019-01-25T15:49:24.800Z,3.91
2019-01-25T15:51:55.173Z,3.89
2019-01-25T15:54:26.557Z,3.82
2019-01-25T15:56:57.252Z,3.77
2019-01-25T15:59:27.711Z,3.75
2019-01-25T16:01:58.396Z,3.64
2019-01-25T16:04:34.792Z,3.53
2019-01-25T16:07:00.989Z,3.44
2019-01-25T16:09:31.432Z,3.36
2019-01-25T16:12:01.846Z,3.26
2019-01-25T16:14:32.303Z,3.28
2019-01-25T16:17:02.802Z,3.24
2019-01-25T16:19:33.256Z,3.22
2019-01-25T16:22:03.740Z,3.16
2019-01-25T16:24:34.199Z,3.18
2019-01-25T16:27:04.842Z,3.12
2019-01-25T16:29:35.360Z,3.06
2019-01-25T16:32:11.912Z,3.11
2019-01-25T16:34:42.293Z,3.01
2019-01-25T16:37:12.825Z,3.01
2019-01-25T16:39:45.478Z,2.96
2019-01-25T16:42:18.286Z,2.98
2019-01-25T16:44:48.960Z,2.93
2019-01-25T16:47:19.342Z,2.96
2019-01-25T16:49:49.720Z,2.89
2019-01-25T16:52:21.443Z,2.94
2019-01-25T16:54:51.844Z,2.86
2019-01-25T16:57:25.159Z,2.83
2019-01-25T16:59:55.621Z,2.81
2019-01-25T17:02:26.021Z,2.79
2019-01-25T17:04:56.468Z,2.77
2019-01-25T17:07:28.972Z,2.79
2019-01-25T17:10:02.443Z,2.85
2019-01-25T17:12:32.775Z,2.78
2019-01-25T17:15:03.403Z,2.79
2019-01-25T17:17:33.826Z,2.83
2019-01-25T17:20:04.742Z,2.84
2019-01-25T17:22:37.548Z,2.80
2019-01-25T17:25:09.586Z,2.81
2019-01-25T17:27:40.220Z,2.84
2019-01-25T17:30:14.978Z,2.86
2019-01-25T17:32:45.476Z,2.88
2019-01-25T17:35:15.892Z,2.90
2019-01-25T17:37:46.330Z,2.93
2019-01-25T17:40:17.848Z,2.92
2019-01-25T17:42:48.264Z,2.95
2019-01-25T17:45:18.674Z,2.95
2019-01-25T17:47:49.011Z,2.96
2019-01-25T17:50:19.676Z,3.00
2019-01-25T17:52:50.045Z,2.96
2019-01-25T17:55:20.521Z,3.00
2019-01-25T17:57:50.960Z,2.96
2019-01-25T18:00:37.390Z,3.00
2019-01-25T18:03:08.632Z,2.99
2019-01-25T18:05:41.600Z,3.04
2019-01-25T18:08:12.335Z,3.05
2019-01-25T18:10:42.848Z,3.04
2019-01-25T18:13:25.810Z,3.03
2019-01-25T18:15:56.507Z,3.00
2019-01-25T18:18:27.014Z,3.00
2019-01-25T18:20:57.438Z,2.99
2019-01-25T18:23:30.662Z,3.00
2019-01-25T18:26:12.779Z,2.99
2019-01-25T18:28:56.613Z,3.02
2019-01-25T18:31:30.614Z,3.01
2019-01-25T18:34:02.271Z,2.99
2019-01-25T18:36:33.815Z,3.02
2019-01-25T18:39:08.353Z,3.04
2019-01-25T18:41:42.324Z,3.02
2019-01-25T18:44:12.796Z,3.03
2019-01-25T18:46:43.180Z,3.05
2019-01-25T18:49:13.701Z,3.03
2019-01-25T18:51:44.338Z,3.03
2019-01-25T18:54:14.816Z,3.01
2019-01-25T18:56:47.851Z,3.04
2019-01-25T18:59:18.724Z,3.04
2019-01-25T19:01:49.898Z,2.99
2019-01-25T19:04:21.118Z,2.99
2019-01-25T19:06:52.566Z,2.99
2019-01-25T19:09:23.400Z,3.00
2019-01-25T19:11:53.953Z,3.01
2019-01-25T19:14:24.368Z,2.98
2019-01-25T19:16:54.838Z,2.98
2019-01-25T19:19:25.281Z,2.99
2019-01-25T19:21:56.126Z,2.96
2019-01-25T19:24:28.415Z,2.96
2019-01-25T19:27:01.461Z,2.98
2019-01-25T19:29:33.085Z,2.95
2019-01-25T19:32:06.479Z,2.94
2019-01-25T19:34:37.789Z,2.97
2019-01-25T19:37:09.141Z,2.95
2019-01-25T19:39:40.354Z,2.99
2019-01-25T19:42:11.776Z,2.96
2019-01-25T19:44:43.323Z,2.95
2019-01-25T19:47:17.846Z,2.95
2019-01-25T19:49:49.091Z,2.95
2019-01-25T19:52:20.519Z,2.97
2019-01-25T19:54:51.449Z,2.94
2019-01-25T19:57:22.879Z,2.91
2019-01-25T19:59:54.392Z,2.88
2019-01-25T20:02:25.824Z,2.90
2019-01-25T20:04:56.289Z,2.86
2019-01-25T20:07:27.772Z,2.87
2019-01-25T20:09:58.298Z,2.87
2019-01-25T20:12:30.861Z,2.89
2019-01-25T20:15:01.437Z,2.91
2019-01-25T20:17:32.375Z,2.91
2019-01-25T20:20:02.795Z,2.90
2019-01-25T20:22:35.064Z,2.88
2019-01-25T20:25:06.180Z,2.87
2019-01-25T20:27:37.608Z,2.88
2019-01-25T20:30:13.756Z,2.86
2019-01-25T20:32:44.258Z,2.83
2019-01-25T20:35:18.943Z,2.82
2019-01-25T20:37:51.203Z,2.82
2019-01-25T20:40:21.711Z,2.83
2019-01-25T20:42:52.160Z,2.83
2019-01-25T20:45:27.345Z,2.87
2019-01-25T20:47:57.750Z,2.89
2019-01-25T20:50:32.143Z,2.87
2019-01-25T20:53:03.021Z,2.89
2019-01-25T20:55:33.822Z,2.89
2019-01-25T20:58:04.649Z,2.90
2019-01-25T21:00:36.853Z,2.92
2019-01-25T21:03:10.576Z,2.93
2019-01-25T21:05:41.169Z,2.95
2019-01-25T21:08:11.729Z,2.96
2019-01-25T21:10:42.473Z,3.02
2019-01-25T21:13:13.664Z,3.04
2019-01-25T21:15:44.088Z,3.06
2019-01-25T21:18:14.515Z,3.07
2019-01-25T21:20:46.814Z,3.11
2019-01-25T21:23:17.289Z,3.13
2019-01-25T21:25:48.521Z,3.16
2019-01-25T21:28:19.230Z,3.18
2019-01-25T21:30:55.830Z,3.24
2019-01-25T21:33:28.055Z,3.28
2019-01-25T21:35:58.399Z,3.31
2019-01-25T21:38:31.803Z,3.35
2019-01-25T21:41:02.218Z,3.37
2019-01-25T21:43:32.962Z,3.38
2019-01-25T21:46:03.568Z,3.43
2019-01-25T21:48:34.424Z,3.45
2019-01-25T21:51:05.264Z,3.54
2019-01-25T21:53:35.797Z,3.62
2019-01-25T21:56:06.491Z,3.61
2019-01-25T21:58:37.111Z,3.62
2019-01-25T22:01:07.596Z,3.61
2019-01-25T22:03:37.989Z,3.60
2019-01-25T22:06:08.991Z,3.68
2019-01-25T22:08:39.605Z,3.70
2019-01-25T22:11:10.485Z,3.75
2019-01-25T22:13:41.079Z,3.81
2019-01-25T22:16:11.516Z,3.73
2019-01-25T22:18:42.025Z,3.76
2019-01-25T22:21:12.498Z,3.76
2019-01-25T22:23:46.494Z,3.80
2019-01-25T22:26:17.950Z,3.81
2019-01-25T22:28:52.542Z,3.87
2019-01-25T22:31:31.893Z,3.85
2019-01-25T22:34:17.798Z,3.86
2019-01-25T22:37:13.876Z,3.87
2019-01-25T22:39:45.044Z,3.86
2019-01-25T22:44:51.442Z,3.89
2019-01-25T22:47:21.801Z,3.92
2019-01-25T22:49:52.285Z,3.98
2019-01-25T22:52:22.896Z,3.96
2019-01-25T22:54:53.268Z,4.00
2019-01-25T22:57:23.751Z,3.99
2019-01-25T22:59:59.264Z,3.99
2019-01-25T23:02:29.707Z,4.01
2019-01-25T23:05:22.076Z,4.04
2019-01-25T23:07:58.506Z,4.06
2019-01-25T23:10:28.995Z,4.08
2019-01-25T23:13:02.429Z,4.10
2019-01-25T23:15:33.126Z,4.08
2019-01-25T23:18:07.777Z,4.12
2019-01-25T23:20:38.277Z,4.11
2019-01-25T23:23:08.775Z,4.16
2019-01-25T23:25:39.239Z,4.17
2019-01-25T23:28:09.693Z,4.19
2019-01-25T23:30:40.502Z,4.24
2019-01-25T23:33:11.440Z,4.23
2019-01-25T23:35:44.188Z,4.24
2019-01-25T23:38:14.602Z,4.30
2019-01-25T23:40:47.858Z,4.28
2019-01-25T23:43:18.263Z,4.25
2019-01-25T23:45:48.714Z,4.29
2019-01-25T23:48:19.392Z,4.29
2019-01-25T23:50:51.441Z,4.32
2019-01-25T23:53:22.005Z,4.35
2019-01-25T23:55:55.664Z,4.35
2019-01-25T23:58:27.886Z,4.39
